createdAt,value
2023-03-19T00:04:22.408Z,97682.50
2023-03-19T00:09:24.878Z,97685.03
2023-03-19T00:14:27.272Z,97678.66
2023-03-19T00:19:30.643Z,97689.31
2023-03-19T00:24:33.386Z,97684.63
2023-03-19T00:29:36.411Z,97684.47
2023-03-19T00:34:41.921Z,97681.31
2023-03-19T00:39:45.639Z,97690.28
2023-03-19T00:44:49.687Z,97687.97
2023-03-19T00:49:52.280Z,97692.66
2023-03-19T00:54:54.774Z,97694.13
2023-03-19T00:59:57.361Z,97691.09
2023-03-19T01:04:59.788Z,97698.41
2023-03-19T01:10:02.785Z,97705.72
2023-03-19T01:15:07.193Z,97716.34
2023-03-19T01:20:13.340Z,97712.09
2023-03-19T01:25:16.576Z,97711.28
2023-03-19T01:30:30.796Z,97723.91
2023-03-19T01:35:48.152Z,97731.50
2023-03-19T01:40:52.369Z,97741.31
2023-03-19T01:46:06.400Z,97740.06
2023-03-19T01:51:32.282Z,97747.16
2023-03-19T01:57:00.447Z,97742.47
2023-03-19T02:02:28.282Z,97748.75
2023-03-19T02:07:34.868Z,97750.84
2023-03-19T02:12:37.454Z,97755.59
2023-03-19T02:17:41.598Z,97757.34
2023-03-19T02:23:01.856Z,97785.56
2023-03-19T02:28:05.501Z,97784.41
2023-03-19T02:33:10.660Z,97782.63
2023-03-19T02:38:15.040Z,97772.78
2023-03-19T02:43:17.620Z,97761.13
2023-03-19T02:48:20.210Z,97761.66
2023-03-19T02:53:23.223Z,97765.00
2023-03-19T02:58:27.757Z,97764.13
2023-03-19T03:03:30.801Z,97752.53
2023-03-19T03:08:33.433Z,97760.31
2023-03-19T03:13:36.610Z,97760.31
2023-03-19T03:18:39.043Z,97763.88
2023-03-19T03:23:42.169Z,97766.22
2023-03-19T03:28:44.716Z,97767.88
2023-03-19T03:33:47.306Z,97766.19
2023-03-19T03:38:49.937Z,97765.50
2023-03-19T03:43:52.453Z,97768.28
2023-03-19T03:48:54.875Z,97780.63
2023-03-19T03:53:57.249Z,97788.25
2023-03-19T03:58:59.969Z,97782.25
2023-03-19T04:04:02.957Z,97780.75
2023-03-19T04:09:07.969Z,97784.72
2023-03-19T04:14:10.757Z,97782.34
2023-03-19T04:19:14.798Z,97793.09
2023-03-19T04:24:17.270Z,97800.38
2023-03-19T04:29:19.998Z,97798.13
2023-03-19T04:34:22.856Z,97793.41
2023-03-19T04:39:26.082Z,97799.03
2023-03-19T04:44:28.860Z,97808.28
2023-03-19T04:49:32.348Z,97803.28
2023-03-19T04:54:35.396Z,97811.31
2023-03-19T04:59:39.099Z,97815.72
2023-03-19T05:04:44.225Z,97815.63
2023-03-19T05:09:50.157Z,97830.22
2023-03-19T05:14:53.627Z,97833.06
2023-03-19T05:20:06.904Z,97838.66
2023-03-19T05:25:11.311Z,97836.16
2023-03-19T05:30:18.379Z,97840.13
2023-03-19T05:35:43.801Z,97833.94
2023-03-19T05:40:54.791Z,97835.66
2023-03-19T05:46:06.965Z,97853.63
2023-03-19T05:51:09.905Z,97852.00
2023-03-19T05:56:16.987Z,97855.78
2023-03-19T06:01:39.626Z,97862.50
2023-03-19T06:06:42.907Z,97865.28
2023-03-19T06:11:45.762Z,97865.59
2023-03-19T06:17:17.354Z,97873.91
2023-03-19T06:22:22.403Z,97874.19
2023-03-19T06:27:25.257Z,97885.22
2023-03-19T06:32:33.673Z,97878.03
2023-03-19T06:37:42.318Z,97882.97
2023-03-19T06:42:48.513Z,97882.75
2023-03-19T06:47:53.633Z,97880.22
2023-03-19T06:52:56.189Z,97877.34
2023-03-19T06:57:58.615Z,97891.31
2023-03-19T07:03:01.326Z,97886.16
2023-03-19T07:08:04.525Z,97888.34
2023-03-19T07:13:07.734Z,97884.72
2023-03-19T07:18:10.435Z,97890.69
2023-03-19T07:23:12.811Z,97893.41
2023-03-19T07:28:15.950Z,97891.78
2023-03-19T07:33:18.647Z,97889.97
2023-03-19T07:38:21.278Z,97903.31
2023-03-19T07:43:23.756Z,97895.13
2023-03-19T07:48:26.974Z,97907.25
2023-03-19T07:53:29.625Z,97905.50
2023-03-19T07:58:32.518Z,97911.16
2023-03-19T08:03:35.137Z,97905.38
2023-03-19T08:08:37.608Z,97903.53
2023-03-19T08:13:40.026Z,97912.59
2023-03-19T08:18:42.544Z,97914.13
2023-03-19T08:23:45.062Z,97907.59
2023-03-19T08:28:47.499Z,97901.94
2023-03-19T08:33:49.854Z,97907.06
2023-03-19T08:38:54.826Z,97918.88
2023-03-19T08:43:57.326Z,97914.34
2023-03-19T08:49:00.526Z,97915.50
2023-03-19T08:54:03.288Z,97916.38
2023-03-19T08:59:06.299Z,97922.66
2023-03-19T09:04:09.055Z,97920.63
2023-03-19T09:09:11.551Z,97931.34
2023-03-19T09:14:16.670Z,97938.72
2023-03-19T09:19:19.272Z,97932.09
2023-03-19T09:24:21.807Z,97924.34
2023-03-19T09:29:24.424Z,97927.59
2023-03-19T09:34:27.092Z,97932.19
2023-03-19T09:39:29.858Z,97916.84
2023-03-19T09:44:40.055Z,97925.91
2023-03-19T09:49:46.496Z,97918.63
2023-03-19T09:54:54.961Z,97912.22
2023-03-19T09:59:57.481Z,97902.78
2023-03-19T10:05:05.540Z,97915.84
2023-03-19T10:10:07.897Z,97904.56
2023-03-19T10:15:10.489Z,97898.00
2023-03-19T10:20:36.669Z,97898.94
2023-03-19T10:25:43.070Z,97891.88
2023-03-19T10:31:07.302Z,97891.53
2023-03-19T10:36:14.924Z,97882.00
2023-03-19T10:41:22.147Z,97875.63
2023-03-19T10:46:25.171Z,97876.63
2023-03-19T10:51:28.294Z,97871.91
2023-03-19T10:56:34.620Z,97864.53
2023-03-19T11:01:40.738Z,97860.78
2023-03-19T11:06:48.209Z,97854.66
2023-03-19T11:11:54.156Z,97864.38
2023-03-19T11:17:06.978Z,97857.13
2023-03-19T11:22:21.219Z,97856.03
2023-03-19T11:27:35.761Z,97854.78
2023-03-19T11:32:41.314Z,97853.44
2023-03-19T11:37:53.154Z,97847.28
2023-03-19T11:43:12.314Z,97859.09
2023-03-19T11:48:39.016Z,97839.72
2023-03-19T11:53:50.200Z,97839.94
2023-03-19T11:59:05.664Z,97835.13
2023-03-19T12:04:45.968Z,97837.53
2023-03-19T12:10:18.465Z,97824.84
2023-03-19T12:15:43.126Z,97825.88
2023-03-19T12:21:12.639Z,97815.66
2023-03-19T12:26:57.473Z,97815.78
2023-03-19T12:32:23.681Z,97815.72
2023-03-19T12:37:31.466Z,97816.13
2023-03-19T12:42:41.118Z,97813.47
2023-03-19T12:47:45.840Z,97811.00
2023-03-19T12:52:51.891Z,97814.47
2023-03-19T12:58:17.517Z,97819.59
2023-03-19T13:03:34.074Z,97824.59
2023-03-19T13:08:43.558Z,97831.41
2023-03-19T13:13:57.328Z,97858.75
2023-03-19T13:19:30.207Z,97851.97
2023-03-19T13:24:39.238Z,97839.56
2023-03-19T13:30:01.050Z,97838.38
2023-03-19T13:35:34.211Z,97833.59
2023-03-19T13:40:43.406Z,97831.00
2023-03-19T13:45:45.950Z,97830.72
2023-03-19T13:51:03.637Z,97835.44
2023-03-19T13:56:28.554Z,97841.50
2023-03-19T14:01:38.565Z,97842.81
2023-03-19T14:06:47.968Z,97842.03
2023-03-19T14:11:50.457Z,97831.41
2023-03-19T14:16:54.941Z,97833.38
2023-03-19T14:22:00.152Z,97824.81
2023-03-19T14:27:16.158Z,97822.28
2023-03-19T14:32:21.965Z,97820.59
2023-03-19T14:37:44.539Z,97816.81
2023-03-19T14:42:52.997Z,97826.31
2023-03-19T14:48:20.509Z,97844.84
2023-03-19T14:53:26.386Z,97845.47
2023-03-19T14:58:28.967Z,97834.81
2023-03-19T15:03:37.938Z,97830.88
2023-03-19T15:08:42.122Z,97828.06
2023-03-19T15:14:04.209Z,97833.19
2023-03-19T15:19:10.987Z,97839.50
2023-03-19T15:24:17.913Z,97837.50
2023-03-19T15:29:32.421Z,97846.28
2023-03-19T15:34:37.330Z,97846.84
2023-03-19T15:39:50.406Z,97850.78
2023-03-19T15:45:01.330Z,97847.00
2023-03-19T15:50:12.544Z,97851.66
2023-03-19T15:55:16.834Z,97867.09
2023-03-19T16:00:20.068Z,97878.28
2023-03-19T16:05:28.393Z,97886.44
2023-03-19T16:10:41.092Z,97889.69
2023-03-19T16:15:45.135Z,97909.44
2023-03-19T16:21:08.381Z,97915.69
2023-03-19T16:26:18.517Z,97938.69
2023-03-19T16:31:24.552Z,97942.25
2023-03-19T16:36:33.824Z,97941.09
2023-03-19T16:41:36.874Z,97956.38
2023-03-19T16:46:39.579Z,97950.50
2023-03-19T16:52:03.842Z,97949.72
2023-03-19T16:57:06.580Z,97967.13
2023-03-19T17:02:13.689Z,97965.88
2023-03-19T17:07:16.314Z,97966.84
2023-03-19T17:12:18.910Z,97977.63
2023-03-19T17:17:21.977Z,97985.03
2023-03-19T17:22:27.684Z,97990.97
2023-03-19T17:27:32.453Z,97995.44
2023-03-19T17:32:38.437Z,98003.38
2023-03-19T17:37:41.192Z,98010.09
2023-03-19T17:42:43.723Z,98010.38
2023-03-19T17:47:50.765Z,98027.81
2023-03-19T17:52:53.851Z,98022.22
2023-03-19T17:57:56.995Z,98028.53
2023-03-19T18:02:59.579Z,98029.41
2023-03-19T18:08:02.278Z,98025.56
2023-03-19T18:13:07.543Z,98037.22
2023-03-19T18:18:28.320Z,98030.16
2023-03-19T18:23:31.276Z,98035.81
2023-03-19T18:28:34.162Z,98036.38
2023-03-19T18:33:37.435Z,98035.25
2023-03-19T18:38:40.744Z,98036.13
2023-03-19T18:43:43.143Z,98042.81
2023-03-19T18:48:45.578Z,98050.34
2023-03-19T18:53:48.113Z,98050.97
2023-03-19T18:58:52.510Z,98061.28
2023-03-19T19:03:55.548Z,98072.91
2023-03-19T19:08:58.073Z,98064.63
2023-03-19T19:14:01.209Z,98066.38
2023-03-19T19:19:17.631Z,98067.56
2023-03-19T19:24:21.261Z,98076.13
2023-03-19T19:29:27.102Z,98078.44
2023-03-19T19:34:29.582Z,98073.25
2023-03-19T19:39:32.325Z,98090.13
2023-03-19T19:44:35.013Z,98086.13
2023-03-19T19:49:37.529Z,98087.59
2023-03-19T19:54:40.379Z,98092.38
2023-03-19T19:59:43.627Z,98091.38
2023-03-19T20:04:46.661Z,98101.41
2023-03-19T20:09:49.605Z,98106.53
2023-03-19T20:14:52.389Z,98104.47
2023-03-19T20:19:55.003Z,98109.16
2023-03-19T20:24:58.135Z,98112.38
2023-03-19T20:30:00.859Z,98126.06
2023-03-19T20:35:05.277Z,98124.75
2023-03-19T20:40:08.048Z,98118.09
2023-03-19T20:45:18.028Z,98129.66
2023-03-19T20:50:34.878Z,98130.97
2023-03-19T20:55:39.848Z,98137.63
2023-03-19T21:00:42.505Z,98139.16
2023-03-19T21:05:46.195Z,98140.94
2023-03-19T21:10:49.417Z,98149.03
2023-03-19T21:15:54.120Z,98143.97
2023-03-19T21:20:58.061Z,98146.81
2023-03-19T21:26:17.821Z,98151.16
2023-03-19T21:31:21.163Z,98162.59
2023-03-19T21:36:23.880Z,98159.09
2023-03-19T21:41:33.547Z,98170.63
2023-03-19T21:46:36.890Z,98169.56
2023-03-19T21:51:39.560Z,98169.75
2023-03-19T21:56:43.987Z,98164.06
2023-03-19T22:01:46.712Z,98163.53
2023-03-19T22:06:49.291Z,98167.25
2023-03-19T22:11:52.448Z,98166.63
2023-03-19T22:16:56.009Z,98170.28
2023-03-19T22:21:58.499Z,98171.81
2023-03-19T22:27:01.199Z,98175.66
2023-03-19T22:32:04.222Z,98187.28
2023-03-19T22:37:26.916Z,98186.06
2023-03-19T22:42:29.429Z,98198.00
2023-03-19T22:47:38.247Z,98201.38
2023-03-19T22:52:40.696Z,98215.59
2023-03-19T22:57:43.570Z,98224.19
2023-03-19T23:02:48.230Z,98227.13
2023-03-19T23:07:50.895Z,98226.75
2023-03-19T23:12:55.753Z,98221.84
2023-03-19T23:17:59.914Z,98226.41
2023-03-19T23:23:02.610Z,98226.66
2023-03-19T23:28:06.084Z,98219.13
2023-03-19T23:33:10.923Z,98214.66
2023-03-19T23:38:14.225Z,98216.47
2023-03-19T23:43:21.896Z,98201.28
2023-03-19T23:48:38.712Z,98205.75
2023-03-19T23:53:42.141Z,98206.72
2023-03-19T23:58:46.428Z,98215.53
